IBE73M LEAL-LEBL
Flight info
| Callsign | IBE73M |
|---|---|
| Flight time | N/A |
| Altitude | 26000 |
| Route | MITOS N608 MATEX |
| Aircraft | A319/M-SDE3FGHIRWY/LB1 |
Departure
| Time | N/A |
|---|---|
| Airport | Alicante-Elche Miguel Hernández Airport (LEAL) |
Arrival
| Time | 2026-05-06 10:20 |
|---|---|
| Airport | Josep Tarradellas Barcelona-El Prat Airport (LEBL) |
| Time | Latitude | Longitude | Altitude | Speed | Heading |
|---|---|---|---|---|---|
| 2026-05-06 09:51 | 39.30229 | -0.00798 | 25975 ft | 488 kts | 354° |
| 2026-05-06 09:52 | 39.33628 | -0.00778 | 25974 ft | 488 kts | 354° |
| 2026-05-06 09:52 | 39.37026 | -0.00760 | 25986 ft | 489 kts | 354° |
| 2026-05-06 09:52 | 39.40425 | -0.00742 | 25970 ft | 489 kts | 354° |
| 2026-05-06 09:52 | 39.43836 | -0.00719 | 25972 ft | 489 kts | 354° |
| 2026-05-06 09:53 | 39.47239 | -0.00694 | 25971 ft | 489 kts | 354° |
| 2026-05-06 09:53 | 39.50641 | -0.00673 | 25972 ft | 489 kts | 354° |
| 2026-05-06 09:53 | 39.54044 | -0.00652 | 25966 ft | 489 kts | 354° |
| 2026-05-06 09:53 | 39.57441 | -0.00632 | 25970 ft | 489 kts | 354° |
| 2026-05-06 09:54 | 39.60846 | -0.00610 | 25986 ft | 489 kts | 354° |
| 2026-05-06 09:54 | 39.64243 | -0.00590 | 25982 ft | 489 kts | 354° |
| 2026-05-06 09:54 | 39.67647 | -0.00573 | 25972 ft | 489 kts | 354° |
| 2026-05-06 09:54 | 39.71051 | -0.00553 | 25969 ft | 489 kts | 354° |
| 2026-05-06 09:55 | 39.74410 | -0.00529 | 25964 ft | 489 kts | 354° |
| 2026-05-06 09:55 | 39.77817 | -0.00457 | 25962 ft | 492 kts | 358° |
| 2026-05-06 09:55 | 39.81225 | 0.00151 | 25980 ft | 499 kts | 7° |
| 2026-05-06 09:55 | 39.84570 | 0.01441 | 25974 ft | 506 kts | 16° |
| 2026-05-06 09:56 | 39.87767 | 0.03413 | 25969 ft | 512 kts | 26° |
| 2026-05-06 09:56 | 39.90767 | 0.05942 | 25968 ft | 514 kts | 30° |
| 2026-05-06 09:56 | 39.93734 | 0.08546 | 25965 ft | 514 kts | 30° |
| 2026-05-06 09:56 | 39.96704 | 0.11152 | 25963 ft | 514 kts | 30° |
| 2026-05-06 09:57 | 39.99679 | 0.13758 | 25961 ft | 514 kts | 30° |
| 2026-05-06 09:57 | 40.02655 | 0.16356 | 25964 ft | 514 kts | 30° |
| 2026-05-06 09:57 | 40.05636 | 0.18954 | 25986 ft | 515 kts | 30° |
| 2026-05-06 09:57 | 40.08613 | 0.21552 | 25999 ft | 515 kts | 30° |
| 2026-05-06 09:58 | 40.11584 | 0.24153 | 25997 ft | 515 kts | 30° |
| 2026-05-06 09:58 | 40.14556 | 0.26766 | 25994 ft | 515 kts | 30° |
| 2026-05-06 09:58 | 40.17521 | 0.29380 | 25990 ft | 515 kts | 30° |
| 2026-05-06 09:58 | 40.20493 | 0.32003 | 25988 ft | 515 kts | 30° |
| 2026-05-06 09:59 | 40.23460 | 0.34622 | 25986 ft | 514 kts | 30° |
| 2026-05-06 09:59 | 40.26435 | 0.37247 | 26014 ft | 515 kts | 30° |
| 2026-05-06 09:59 | 40.29401 | 0.39865 | 25994 ft | 515 kts | 30° |
| 2026-05-06 09:59 | 40.32370 | 0.42494 | 25991 ft | 515 kts | 30° |
| 2026-05-06 10:00 | 40.35297 | 0.45088 | 25977 ft | 515 kts | 30° |
| 2026-05-06 10:00 | 40.38272 | 0.47724 | 25972 ft | 515 kts | 30° |
| 2026-05-06 10:00 | 40.41239 | 0.50353 | 25974 ft | 515 kts | 30° |
| 2026-05-06 10:00 | 40.44209 | 0.52987 | 25973 ft | 515 kts | 30° |
| 2026-05-06 10:01 | 40.47177 | 0.55626 | 25973 ft | 515 kts | 31° |
| 2026-05-06 10:01 | 40.50147 | 0.58271 | 25993 ft | 516 kts | 30° |
| 2026-05-06 10:01 | 40.53117 | 0.60920 | 25989 ft | 515 kts | 31° |
| 2026-05-06 10:01 | 40.56086 | 0.63571 | 25988 ft | 516 kts | 31° |
| 2026-05-06 10:02 | 40.59053 | 0.66223 | 25985 ft | 516 kts | 31° |
| 2026-05-06 10:02 | 40.62021 | 0.68879 | 25983 ft | 515 kts | 31° |
| 2026-05-06 10:02 | 40.64984 | 0.71536 | 25982 ft | 515 kts | 31° |
| 2026-05-06 10:02 | 40.67948 | 0.74196 | 25981 ft | 515 kts | 31° |
| 2026-05-06 10:03 | 40.70913 | 0.76857 | 25968 ft | 515 kts | 31° |
| 2026-05-06 10:03 | 40.73884 | 0.79521 | 25966 ft | 516 kts | 31° |
| 2026-05-06 10:03 | 40.76811 | 0.82147 | 25966 ft | 516 kts | 31° |
| 2026-05-06 10:03 | 40.79780 | 0.84815 | 25968 ft | 516 kts | 31° |
| 2026-05-06 10:04 | 40.82747 | 0.87490 | 25582 ft | 517 kts | 31° |
| 2026-05-06 10:04 | 40.85711 | 0.90168 | 25045 ft | 516 kts | 31° |
| 2026-05-06 10:04 | 40.88677 | 0.92851 | 24518 ft | 516 kts | 31° |
| 2026-05-06 10:04 | 40.91641 | 0.95530 | 24026 ft | 516 kts | 31° |
| 2026-05-06 10:05 | 40.94604 | 0.98207 | 23529 ft | 514 kts | 31° |
| 2026-05-06 10:05 | 40.97548 | 1.00874 | 23009 ft | 511 kts | 31° |
| 2026-05-06 10:05 | 41.00468 | 1.03525 | 22480 ft | 507 kts | 31° |
| 2026-05-06 10:05 | 41.03367 | 1.06158 | 21984 ft | 502 kts | 31° |
| 2026-05-06 10:06 | 41.06200 | 1.08736 | 21486 ft | 498 kts | 31° |
| 2026-05-06 10:06 | 41.09044 | 1.11327 | 20997 ft | 494 kts | 31° |
| 2026-05-06 10:06 | 41.11853 | 1.13934 | 20514 ft | 491 kts | 34° |
| 2026-05-06 10:06 | 41.14403 | 1.16933 | 20047 ft | 491 kts | 44° |
| 2026-05-06 10:07 | 41.16578 | 1.20412 | 19581 ft | 489 kts | 53° |
| 2026-05-06 10:07 | 41.18486 | 1.24124 | 19123 ft | 485 kts | 54° |
| 2026-05-06 10:07 | 41.20381 | 1.27808 | 18672 ft | 481 kts | 54° |
| 2026-05-06 10:07 | 41.22268 | 1.31458 | 18219 ft | 477 kts | 54° |
| 2026-05-06 10:08 | 41.24143 | 1.35076 | 17710 ft | 473 kts | 54° |
| 2026-05-06 10:08 | 41.25999 | 1.38661 | 17196 ft | 467 kts | 54° |
| 2026-05-06 10:08 | 41.27832 | 1.42212 | 16699 ft | 462 kts | 54° |
| 2026-05-06 10:08 | 41.29635 | 1.45717 | 16214 ft | 457 kts | 54° |
| 2026-05-06 10:09 | 41.31414 | 1.49187 | 15723 ft | 451 kts | 54° |
| 2026-05-06 10:09 | 41.33167 | 1.52618 | 15254 ft | 446 kts | 54° |
| 2026-05-06 10:09 | 41.34709 | 1.56175 | 14791 ft | 441 kts | 65° |
| 2026-05-06 10:09 | 41.35899 | 1.59915 | 14331 ft | 436 kts | 66° |
| 2026-05-06 10:10 | 41.37053 | 1.63564 | 13879 ft | 431 kts | 66° |
| 2026-05-06 10:10 | 41.38217 | 1.67220 | 13278 ft | 427 kts | 66° |
| 2026-05-06 10:10 | 41.39369 | 1.70840 | 12672 ft | 423 kts | 66° |
| 2026-05-06 10:10 | 41.40509 | 1.74430 | 12075 ft | 419 kts | 66° |
| 2026-05-06 10:11 | 41.41637 | 1.77992 | 11479 ft | 416 kts | 66° |
| 2026-05-06 10:11 | 41.42755 | 1.81525 | 10915 ft | 413 kts | 66° |
| 2026-05-06 10:11 | 41.43864 | 1.85036 | 10345 ft | 410 kts | 66° |
| 2026-05-06 10:11 | 41.44964 | 1.88528 | 9792 ft | 404 kts | 66° |
| 2026-05-06 10:12 | 41.46036 | 1.91936 | 9274 ft | 392 kts | 66° |
| 2026-05-06 10:12 | 41.47070 | 1.95230 | 8907 ft | 378 kts | 66° |
| 2026-05-06 10:12 | 41.48069 | 1.98414 | 8544 ft | 365 kts | 66° |
| 2026-05-06 10:12 | 41.49031 | 2.01490 | 8163 ft | 354 kts | 66° |
| 2026-05-06 10:13 | 41.49965 | 2.04470 | 7810 ft | 344 kts | 66° |
| 2026-05-06 10:13 | 41.50828 | 2.07397 | 7454 ft | 335 kts | 73° |
| 2026-05-06 10:13 | 41.51026 | 2.10430 | 7101 ft | 323 kts | 97° |
| 2026-05-06 10:13 | 41.50385 | 2.13195 | 6758 ft | 304 kts | 120° |
| 2026-05-06 10:14 | 41.49160 | 2.15391 | 6419 ft | 287 kts | 133° |
| 2026-05-06 10:14 | 41.47898 | 2.17340 | 6062 ft | 276 kts | 133° |
| 2026-05-06 10:14 | 41.46657 | 2.19263 | 5546 ft | 271 kts | 132° |
| 2026-05-06 10:14 | 41.45437 | 2.21158 | 5039 ft | 267 kts | 132° |
| 2026-05-06 10:15 | 41.44237 | 2.23023 | 4526 ft | 263 kts | 132° |
| 2026-05-06 10:15 | 41.43054 | 2.24862 | 4012 ft | 259 kts | 131° |
| 2026-05-06 10:15 | 41.41893 | 2.26666 | 3507 ft | 254 kts | 132° |
| 2026-05-06 10:15 | 41.40749 | 2.28438 | 3071 ft | 247 kts | 132° |
| 2026-05-06 10:16 | 41.39459 | 2.29702 | 2884 ft | 225 kts | 166° |
| 2026-05-06 10:16 | 41.37995 | 2.29563 | 2705 ft | 203 kts | 211° |
| 2026-05-06 10:16 | 41.36972 | 2.28381 | 2588 ft | 190 kts | 234° |
| 2026-05-06 10:16 | 41.36290 | 2.26933 | 2542 ft | 182 kts | 243° |
| 2026-05-06 10:17 | 41.35731 | 2.25445 | 2431 ft | 176 kts | 245° |
| 2026-05-06 10:17 | 41.35236 | 2.24033 | 2248 ft | 165 kts | 245° |
| 2026-05-06 10:17 | 41.34761 | 2.22649 | 2045 ft | 160 kts | 246° |
| 2026-05-06 10:17 | 41.34308 | 2.21325 | 1841 ft | 158 kts | 246° |
| 2026-05-06 10:18 | 41.33851 | 2.19985 | 1625 ft | 158 kts | 246° |
| 2026-05-06 10:18 | 41.33395 | 2.18647 | 1404 ft | 159 kts | 246° |
| 2026-05-06 10:18 | 41.32935 | 2.17297 | 1188 ft | 160 kts | 245° |
| 2026-05-06 10:18 | 41.32496 | 2.16011 | 976 ft | 144 kts | 245° |
| 2026-05-06 10:19 | 41.32099 | 2.14848 | 791 ft | 134 kts | 246° |
| 2026-05-06 10:19 | 41.31720 | 2.13732 | 589 ft | 131 kts | 246° |
| 2026-05-06 10:19 | 41.31340 | 2.12635 | 410 ft | 131 kts | 246° |
| 2026-05-06 10:19 | 41.30967 | 2.11536 | 247 ft | 130 kts | 247° |
| 2026-05-06 10:20 | 41.30591 | 2.10436 | 71 ft | 130 kts | 247° |
| 2026-05-06 10:20 | 41.30234 | 2.09390 | 19 ft | 111 kts | 245° |
| 2026-05-06 10:20 | 41.30053 | 2.08855 | 20 ft | 80 kts | 245° |
| 2026-05-06 10:20 | 41.29883 | 2.08361 | 24 ft | 48 kts | 245° |
| 2026-05-06 10:21 | 41.29765 | 2.08037 | 18 ft | 31 kts | 236° |
| 2026-05-06 10:21 | 41.29641 | 2.07874 | 16 ft | 21 kts | 217° |
| 2026-05-06 10:21 | 41.29572 | 2.07810 | 16 ft | 10 kts | 213° |
| 2026-05-06 10:21 | 41.29511 | 2.07758 | 16 ft | 11 kts | 212° |
| 2026-05-06 10:22 | 41.29459 | 2.07685 | 17 ft | 11 kts | 224° |
| 2026-05-06 10:22 | 41.29407 | 2.07700 | 16 ft | 7 kts | 150° |
| 2026-05-06 10:22 | 41.29364 | 2.07730 | 16 ft | 7 kts | 160° |
| 2026-05-06 10:22 | 41.29324 | 2.07750 | 18 ft | 5 kts | 158° |
| 2026-05-06 10:23 | 41.29295 | 2.07766 | 20 ft | 4 kts | 156° |
| 2026-05-06 10:23 | 41.29269 | 2.07782 | 21 ft | 4 kts | 155° |
| 2026-05-06 10:23 | 41.29239 | 2.07801 | 20 ft | 5 kts | 154° |
| 2026-05-06 10:23 | 41.29207 | 2.07830 | 19 ft | 6 kts | 118° |
| 2026-05-06 10:24 | 41.29194 | 2.07858 | 20 ft | 3 kts | 154° |
| 2026-05-06 10:24 | 41.29179 | 2.07867 | 19 ft | 2 kts | 157° |
| 2026-05-06 10:24 | 41.29170 | 2.07872 | 19 ft | 2 kts | 155° |
| 2026-05-06 10:24 | 41.29160 | 2.07878 | 21 ft | 1 kts | 156° |
| 2026-05-06 10:25 | 41.29153 | 2.07882 | 20 ft | 2 kts | 155° |
| 2026-05-06 10:25 | 41.29146 | 2.07887 | 19 ft | 1 kts | 156° |
| 2026-05-06 10:25 | 41.29138 | 2.07891 | 19 ft | 1 kts | 156° |
| 2026-05-06 10:25 | 41.29132 | 2.07895 | 21 ft | 1 kts | 155° |
| 2026-05-06 10:26 | 41.29131 | 2.07896 | 21 ft | 0 kts | 155° |